Time;durP1;ratioP1;P1;durP2;ratioP2;P2;SDS_P1;SDS_P2;PMS_P1;PMS_P2;Temp;Humidity;BMP_temperature;BMP_pressure;BME280_temperature;BME280_humidity;BME280_pressure;Samples;Min_cycle;Max_cycle;Signal;HPM_P1;HPM_P2
2023/09/16 00:00:33;;;;;;;14.35;11.20;;;18.90;77.20;;;20.68;55.94;97477.47;5018093;28;20413;-65
2023/09/16 00:03:03;;;;;;;11.75;9.85;;;19.00;77.20;;;20.64;55.60;97486.03;5015396;28;20054;-65
2023/09/16 00:05:32;;;;;;;11.75;9.75;;;18.90;77.20;;;20.60;56.02;97484.84;5022639;28;20080;-64
2023/09/16 00:07:59;;;;;;;12.95;10.07;;;18.90;77.30;;;20.57;55.67;97488.00;5014881;28;20057;-64
2023/09/16 00:10:27;;;;;;;13.73;10.20;;;18.90;77.30;;;20.56;56.10;97488.22;5017697;28;20049;-64
2023/09/16 00:12:55;;;;;;;12.00;9.82;;;18.90;77.40;;;20.54;55.85;97488.44;5015287;28;20485;-63
2023/09/16 00:15:22;;;;;;;12.23;10.85;;;19.00;77.10;;;20.53;56.20;97492.22;5015141;28;20042;-64
2023/09/16 00:17:50;;;;;;;13.82;9.77;;;18.90;77.40;;;20.50;56.30;97491.84;5019031;28;20052;-64
2023/09/16 00:20:18;;;;;;;14.10;11.23;;;18.90;77.30;;;20.46;56.05;97483.34;5019067;28;20042;-64
2023/09/16 00:22:47;;;;;;;11.98;9.93;;;18.90;77.00;;;20.43;56.14;97484.66;5016084;28;20072;-64
2023/09/16 00:25:15;;;;;;;13.27;10.30;;;18.90;76.90;;;20.41;56.35;97489.47;5015125;28;20042;-64
2023/09/16 00:27:43;;;;;;;14.93;11.40;;;19.00;76.50;;;20.39;56.53;97478.03;5016239;28;20046;-64
2023/09/16 00:30:11;;;;;;;12.55;10.23;;;19.00;76.60;;;20.38;56.02;97479.09;5017347;28;20093;-65
2023/09/16 00:32:39;;;;;;;15.02;9.77;;;19.00;76.60;;;20.39;56.34;97475.31;5017057;28;20424;-65
2023/09/16 00:35:08;;;;;;;12.77;11.30;;;19.00;76.60;;;20.37;56.27;97466.63;5016940;28;20398;-64
2023/09/16 00:37:36;;;;;;;13.50;10.57;;;18.90;77.20;;;20.37;56.20;97477.44;5019541;28;20057;-65
2023/09/16 00:40:06;;;;;;;13.18;11.68;;;18.80;77.70;;;20.33;56.37;97478.94;5021115;28;20041;-64
2023/09/16 00:42:38;;;;;;;13.32;10.52;;;18.70;77.70;;;20.30;56.42;97468.59;5020628;28;20053;-64
2023/09/16 00:45:10;;;;;;;13.20;11.75;;;18.80;77.70;;;20.22;56.93;97474.28;5022751;28;20501;-64
2023/09/16 00:47:40;;;;;;;14.07;9.52;;;18.70;78.10;;;20.21;56.52;97473.47;5019898;28;20513;-65
2023/09/16 00:50:11;;;;;;;12.95;10.43;;;18.60;78.40;;;20.18;56.68;97470.41;5023597;28;20057;-64
2023/09/16 00:52:52;;;;;;;13.57;11.60;;;18.60;78.20;;;20.15;57.04;97473.56;5034305;28;20046;-64
2023/09/16 00:55:20;;;;;;;13.50;10.48;;;18.60;78.70;;;20.09;56.60;97467.19;5028221;28;20072;-64
2023/09/16 00:57:52;;;;;;;14.07;11.45;;;18.40;79.20;;;20.06;56.70;97468.47;5041665;28;20049;-64
2023/09/16 01:00:26;;;;;;;12.73;9.70;;;18.30;79.60;;;20.08;56.83;97470.94;5037047;28;20045;-64
2023/09/16 01:02:55;;;;;;;;;;;18.40;79.60;;;20.04;56.72;97461.63;5020775;28;20519;-65
2023/09/16 01:05:24;;;;;;;13.50;9.55;;;18.40;80.50;;;20.08;56.96;97467.41;5008530;28;19921;-64
2023/09/16 01:07:52;;;;;;;13.52;11.40;;;18.40;79.60;;;20.06;57.01;97470.34;5012879;28;20064;-64
2023/09/16 01:10:20;;;;;;;13.05;10.75;;;18.40;79.60;;;20.04;56.96;97467.84;5012011;28;20057;-65
2023/09/16 01:12:54;;;;;;;15.05;11.13;;;18.30;80.10;;;20.00;56.78;97474.75;5033092;28;20688;-65
2023/09/16 01:15:24;;;;;;;;;;;18.30;80.00;;;19.96;56.95;97461.94;5015888;28;20516;-64
2023/09/16 01:18:19;;;;;;;13.88;10.13;;;18.30;81.10;;;19.95;57.10;97465.69;5017686;28;19921;-64
2023/09/16 01:20:48;;;;;;;13.20;10.73;;;18.30;80.80;;;19.93;57.31;97474.03;5018901;28;20054;-63
2023/09/16 01:23:18;;;;;;;13.35;11.35;;;18.30;80.20;;;19.92;57.40;97466.16;5021337;28;20045;-63
2023/09/16 01:25:46;;;;;;;12.75;11.27;;;18.30;81.30;;;19.88;57.47;97467.66;5010023;28;20428;-64
2023/09/16 01:28:14;;;;;;;15.48;10.68;;;18.20;81.20;;;19.88;57.42;97470.34;5018150;28;20064;-64
2023/09/16 01:30:48;;;;;;;13.07;10.70;;;18.20;81.00;;;19.86;57.51;97467.88;5032029;28;20511;-64
2023/09/16 01:33:25;;;;;;;18.02;10.90;;;18.20;81.00;;;19.86;57.50;97463.28;5019562;28;20068;-64
2023/09/16 01:36:05;;;;;;;12.75;10.25;;;18.20;81.00;;;19.85;57.52;97463.50;5017625;28;20060;-64
2023/09/16 01:38:37;;;;;;;14.13;10.40;;;18.20;80.80;;;19.83;57.73;97469.16;5016848;28;20038;-64
2023/09/16 01:41:05;;;;;;;13.25;10.10;;;18.20;80.50;;;19.80;57.78;97464.19;5004584;28;20103;-64
2023/09/16 01:43:33;;;;;;;12.30;10.05;;;18.20;81.20;;;19.76;57.90;97471.09;5026448;28;20064;-64
2023/09/16 01:46:01;;;;;;;11.63;9.77;;;18.20;80.80;;;19.76;58.28;97468.41;5016622;28;20513;-64
2023/09/16 01:48:29;;;;;;;14.00;10.68;;;18.20;80.50;;;19.79;58.13;97473.38;5027565;28;20049;-64
2023/09/16 01:51:18;;;;;;;13.68;10.95;;;18.30;80.40;;;19.79;57.99;97473.38;5017298;28;20068;-63
2023/09/16 01:53:45;;;;;;;14.32;11.13;;;18.30;80.50;;;19.77;58.25;97477.31;5030597;28;20060;-64
2023/09/16 01:56:13;;;;;;;12.57;11.25;;;18.20;81.50;;;19.73;58.35;97474.22;5072755;27;20497;-63
2023/09/16 01:58:41;;;;;;;15.23;11.10;;;18.00;82.00;;;19.73;58.17;97470.72;5035415;28;20058;-63
2023/09/16 02:01:09;;;;;;;13.48;11.65;;;18.00;82.10;;;19.69;58.34;97473.00;5022182;28;20053;-64
2023/09/16 02:03:37;;;;;;;14.40;11.60;;;18.00;82.60;;;19.68;58.36;97474.88;5018676;28;20527;-64
2023/09/16 02:06:06;;;;;;;13.20;11.35;;;17.90;82.60;;;19.66;58.55;97473.47;5070611;27;20424;-63
2023/09/16 02:08:34;;;;;;;13.27;11.63;;;18.00;82.30;;;19.66;58.31;97470.75;5018994;28;20080;-64
2023/09/16 02:11:02;;;;;;;14.60;12.23;;;18.00;82.20;;;19.67;58.64;97475.09;5019687;28;20045;-63
2023/09/16 02:13:32;;;;;;;13.65;11.27;;;18.10;82.50;;;19.65;58.70;97469.91;5020325;28;20053;-63
2023/09/16 02:16:00;;;;;;;14.20;12.07;;;18.10;82.30;;;19.66;58.78;97470.75;5018986;28;20049;-64
2023/09/16 02:18:28;;;;;;;13.27;11.02;;;18.10;82.30;;;19.64;58.81;97478.25;5021121;27;20520;-63
2023/09/16 02:20:57;;;;;;;14.05;10.82;;;18.10;82.10;;;19.62;58.87;97480.38;5026149;28;20089;-63
2023/09/16 02:23:26;;;;;;;16.08;12.18;;;18.10;81.80;;;19.58;58.97;97484.53;5033307;28;20046;-63
2023/09/16 02:25:53;;;;;;;11.80;10.43;;;18.20;81.60;;;19.56;59.11;97492.03;5017907;28;20443;-63
2023/09/16 02:28:21;;;;;;;13.93;11.27;;;18.20;81.60;;;19.59;59.21;97488.91;5036738;28;20507;-63
2023/09/16 02:30:51;;;;;;;13.25;10.43;;;18.20;82.00;;;19.57;59.25;97491.00;5033381;28;20049;-63
2023/09/16 02:33:20;;;;;;;14.95;12.07;;;18.00;83.10;;;19.58;59.21;97492.63;5022719;28;20168;-63
2023/09/16 02:35:47;;;;;;;13.02;11.15;;;17.90;83.50;;;19.58;59.05;97498.03;5018288;28;20053;-63
2023/09/16 02:38:15;;;;;;;13.65;11.25;;;17.90;83.50;;;19.57;59.17;97491.81;5036720;28;20107;-63
2023/09/16 02:40:43;;;;;;;13.38;10.80;;;17.90;83.90;;;19.53;59.43;97490.59;5019358;28;20335;-63
2023/09/16 02:43:13;;;;;;;11.98;10.15;;;17.90;84.60;;;19.51;59.47;97500.81;5004729;28;20268;-63
2023/09/16 02:45:42;;;;;;;14.65;11.88;;;17.80;85.00;;;19.48;59.50;97496.69;5018172;28;20418;-63
2023/09/16 02:48:10;;;;;;;13.68;11.32;;;17.70;85.50;;;19.48;59.78;97494.00;5034914;28;20046;-63
2023/09/16 02:50:38;;;;;;;13.05;10.30;;;17.70;85.50;;;19.50;59.75;97492.94;5018335;28;20045;-63
2023/09/16 02:53:06;;;;;;;17.05;12.40;;;17.80;85.00;;;19.52;59.54;97491.66;5014901;28;20329;-63
2023/09/16 02:55:34;;;;;;;13.50;11.70;;;17.90;84.70;;;19.54;59.59;97488.72;5025428;28;20050;-63
2023/09/16 02:58:04;;;;;;;13.10;10.63;;;17.90;84.40;;;19.55;59.97;97493.91;5019976;28;20046;-63
2023/09/16 03:00:33;;;;;;;14.15;11.18;;;17.90;84.60;;;19.56;59.62;97484.78;5034693;28;20041;-63
2023/09/16 03:03:01;;;;;;;13.98;10.70;;;17.90;84.70;;;19.59;59.69;97487.00;5015898;28;20432;-64
2023/09/16 03:05:30;;;;;;;12.57;11.02;;;17.90;84.60;;;19.61;59.71;97497.59;5016160;28;20046;-64
2023/09/16 03:07:57;;;;;;;14.18;11.32;;;18.00;84.60;;;19.62;59.49;97486.59;5032389;28;20061;-64
2023/09/16 03:10:25;;;;;;;14.30;11.27;;;18.00;84.10;;;19.63;59.28;97492.81;5067647;27;20069;-64
2023/09/16 03:12:53;;;;;;;17.40;11.80;;;18.00;83.70;;;19.62;59.49;97491.16;5033030;28;20041;-64
2023/09/16 03:15:20;;;;;;;17.00;11.18;;;18.00;83.50;;;19.61;59.50;97493.03;5015066;28;20386;-64
2023/09/16 03:17:48;;;;;;;15.30;11.48;;;18.00;83.60;;;19.61;59.37;97495.72;5016903;28;20042;-64
2023/09/16 03:20:35;;;;;;;13.40;12.00;;;17.90;83.10;;;19.59;59.14;97488.91;5020011;28;20038;-64
2023/09/16 03:23:03;;;;;;;11.80;10.60;;;17.90;83.30;;;19.57;59.33;97486.41;5031705;28;20050;-64
2023/09/16 03:25:31;;;;;;;14.70;11.40;;;17.90;83.20;;;19.54;59.16;97483.31;5014492;28;20420;-64
2023/09/16 03:27:58;;;;;;;13.48;11.55;;;17.90;83.20;;;19.53;59.33;97479.81;5018373;28;20104;-64
2023/09/16 03:30:26;;;;;;;14.48;11.27;;;17.90;83.40;;;19.51;59.53;97479.22;5034788;28;20049;-65
2023/09/16 03:32:54;;;;;;;12.35;10.82;;;17.90;83.70;;;19.51;59.43;97479.22;5032469;28;20045;-64
2023/09/16 03:35:24;;;;;;;13.35;10.05;;;17.80;83.50;;;19.50;59.13;97479.44;5022810;28;20041;-65
2023/09/16 03:37:52;;;;;;;12.98;10.40;;;17.80;83.20;;;19.48;59.21;97476.94;5016833;28;20049;-64
2023/09/16 03:40:20;;;;;;;12.43;11.13;;;17.80;83.00;;;19.46;58.85;97484.44;5020858;28;20449;-64
2023/09/16 03:42:47;;;;;;;16.55;12.45;;;17.80;82.70;;;19.42;59.00;97473.25;5018024;28;20046;-64
2023/09/16 03:45:16;;;;;;;16.58;12.35;;;17.70;82.60;;;19.37;58.71;97475.00;5017733;28;20156;-64
2023/09/16 03:47:57;;;;;;;14.38;10.52;;;17.60;82.50;;;19.31;58.75;97468.59;5026192;28;20050;-64
2023/09/16 03:50:27;;;;;;;15.15;11.98;;;17.60;82.50;;;19.29;58.99;97470.69;5011891;28;20077;-65
2023/09/16 03:52:54;;;;;;;16.35;12.88;;;17.60;82.40;;;19.26;58.90;97466.56;5016647;28;20053;-64
2023/09/16 03:55:24;;;;;;;16.20;13.15;;;17.60;82.50;;;19.24;58.65;97465.94;5011756;28;20519;-65
2023/09/16 03:57:52;;;;;;;13.88;11.40;;;17.50;82.50;;;19.22;58.80;97464.53;5053158;28;20413;-64
2023/09/16 04:00:20;;;;;;;14.50;12.45;;;17.50;82.50;;;19.20;58.72;97459.34;5015918;28;20413;-64
2023/09/16 04:02:48;;;;;;;15.45;12.80;;;17.40;82.50;;;19.16;58.77;97458.13;5027279;28;20041;-64
2023/09/16 04:05:15;;;;;;;17.83;12.75;;;17.40;82.50;;;19.14;58.86;97451.31;5026996;28;20045;-64
2023/09/16 04:07:43;;;;;;;14.23;11.90;;;17.40;82.70;;;19.10;58.74;97450.94;5020592;28;20046;-64
2023/09/16 04:10:11;;;;;;;15.18;11.32;;;17.30;82.60;;;19.05;58.73;97448.06;5019234;27;20054;-64
2023/09/16 04:12:39;;;;;;;14.13;11.85;;;17.30;82.60;;;19.01;58.75;97452.25;5027805;28;20416;-64
2023/09/16 04:15:07;;;;;;;15.20;11.75;;;17.30;82.80;;;18.97;58.69;97449.16;5037103;28;20111;-64
2023/09/16 04:17:35;;;;;;;16.33;12.60;;;17.20;83.00;;;18.93;58.82;97453.34;5022361;28;20389;-64
2023/09/16 04:20:05;;;;;;;16.05;12.10;;;17.20;83.20;;;18.89;58.97;97457.53;5028900;27;20050;-64
2023/09/16 04:22:33;;;;;;;16.02;11.85;;;17.10;83.50;;;18.83;59.03;97455.72;5019004;28;20055;-63
2023/09/16 04:25:02;;;;;;;15.43;12.80;;;17.00;84.20;;;18.78;59.08;97458.19;5035640;28;20061;-63
2023/09/16 04:27:30;;;;;;;17.70;12.27;;;17.00;84.50;;;18.75;59.34;97454.06;5039375;27;20048;-63
2023/09/16 04:30:00;;;;;;;15.73;12.63;;;16.90;85.20;;;18.75;59.36;97453.25;5035418;28;20421;-63
2023/09/16 04:32:27;;;;;;;14.68;11.50;;;17.00;85.20;;;18.76;59.91;97446.81;5024747;28;20042;-63
2023/09/16 04:35:00;;;;;;;16.95;12.52;;;17.00;86.00;;;18.79;60.08;97443.69;5021399;28;20042;-63
2023/09/16 04:37:28;;;;;;;17.30;12.33;;;17.10;85.80;;;18.79;59.76;97444.50;5056346;28;20053;-63
2023/09/16 04:39:55;;;;;;;13.98;11.15;;;17.10;85.20;;;18.79;59.68;97446.38;5036722;28;20319;-63
2023/09/16 04:42:30;;;;;;;16.08;12.18;;;17.10;85.20;;;18.77;59.71;97441.19;5019059;28;20042;-63
2023/09/16 04:44:58;;;;;;;14.45;11.43;;;17.00;85.70;;;18.74;59.67;97451.59;5027627;28;20060;-63
2023/09/16 04:47:28;;;;;;;16.20;12.68;;;17.00;85.30;;;18.68;60.05;97443.31;5036517;28;20393;-63
2023/09/16 04:49:55;;;;;;;19.35;13.57;;;17.00;86.40;;;18.67;60.28;97448.94;5036286;28;20072;-62
2023/09/16 04:52:30;;;;;;;14.30;12.70;;;16.90;87.10;;;18.67;60.42;97446.25;5018411;28;20057;-63
2023/09/16 04:54:58;;;;;;;15.35;12.50;;;16.90;87.30;;;18.68;60.42;97440.63;5031353;28;20053;-63
2023/09/16 04:57:25;;;;;;;16.98;13.30;;;17.00;87.00;;;18.67;60.78;97436.28;5038266;27;20049;-63
2023/09/16 04:59:56;;;;;;;17.38;13.10;;;17.00;88.30;;;18.68;61.01;97435.22;5019298;28;20041;-63
2023/09/16 05:02:25;;;;;;;19.17;13.13;;;17.00;88.40;;;18.69;61.15;97436.06;5021097;28;20283;-64
2023/09/16 05:04:53;;;;;;;17.33;13.57;;;17.00;89.10;;;18.72;61.23;97432.09;5019668;28;20060;-62
2023/09/16 05:07:20;;;;;;;16.25;12.60;;;17.10;89.70;;;18.73;61.51;97429.19;5036551;28;20085;-62
2023/09/16 05:09:48;;;;;;;16.85;13.90;;;17.10;90.00;;;18.73;61.68;97433.75;5021015;28;20046;-62
2023/09/16 05:12:16;;;;;;;17.77;12.25;;;17.10;89.90;;;18.68;61.81;97429.84;5021440;28;20049;-63
2023/09/16 05:14:45;;;;;;;14.95;12.45;;;17.10;90.20;;;18.66;61.86;97434.63;5028638;27;20049;-63
2023/09/16 05:17:12;;;;;;;17.30;12.73;;;17.10;90.00;;;18.67;61.79;97430.06;5017737;28;20045;-62
2023/09/16 05:19:40;;;;;;;16.25;13.20;;;17.00;89.80;;;18.64;61.83;97434.00;5023627;28;20045;-62
2023/09/16 05:22:08;;;;;;;18.13;12.55;;;16.90;90.50;;;18.62;61.96;97432.59;5020002;28;20413;-62
2023/09/16 05:24:36;;;;;;;18.75;13.50;;;16.90;90.70;;;18.58;62.01;97437.59;5035587;28;20057;-62
2023/09/16 05:27:04;;;;;;;18.63;13.57;;;16.90;91.00;;;18.58;61.97;97431.38;5018589;28;20524;-62
2023/09/16 05:29:33;;;;;;;17.27;13.43;;;16.90;90.80;;;18.56;62.14;97428.06;5018158;28;20493;-62
2023/09/16 05:32:01;;;;;;;16.83;13.00;;;16.90;91.20;;;18.54;62.20;97424.75;5016514;28;20050;-62
2023/09/16 05:34:29;;;;;;;18.33;12.75;;;16.90;91.40;;;18.54;62.36;97427.47;5019503;28;20045;-63
2023/09/16 05:36:57;;;;;;;15.82;12.73;;;16.90;90.90;;;18.52;62.48;97426.84;5036010;28;20064;-62
2023/09/16 05:39:25;;;;;;;16.20;12.93;;;17.00;91.00;;;18.48;62.61;97435.38;5033337;28;20042;-62
2023/09/16 05:41:54;;;;;;;18.92;13.05;;;17.00;90.60;;;18.50;62.50;97427.88;5016064;28;20038;-65
2023/09/16 05:44:22;;;;;;;17.83;13.73;;;17.00;90.60;;;18.55;62.56;97426.41;5013030;28;20052;-64
2023/09/16 05:46:50;;;;;;;16.00;13.27;;;17.00;90.70;;;18.54;62.61;97427.47;5020108;28;20156;-64
2023/09/16 05:49:19;;;;;;;18.10;14.48;;;16.90;91.50;;;18.52;62.70;97435.75;5009004;28;20073;-62
2023/09/16 05:51:47;;;;;;;16.40;13.52;;;16.80;92.40;;;18.55;62.89;97427.22;5014857;28;20049;-64
2023/09/16 05:54:17;;;;;;;17.65;12.77;;;16.90;92.90;;;18.57;63.00;97424.31;5026201;28;20072;-62
2023/09/16 05:56:46;;;;;;;17.73;13.70;;;16.90;93.30;;;18.62;63.08;97427.19;5014512;28;20053;-62
2023/09/16 05:59:15;;;;;;;16.42;13.35;;;17.00;93.10;;;18.65;63.16;97427.59;5033482;28;20396;-62
2023/09/16 06:01:43;;;;;;;18.33;13.57;;;17.00;93.30;;;18.67;63.37;97430.88;5034130;28;20046;-62
2023/09/16 06:04:12;;;;;;;16.20;13.27;;;17.10;94.50;;;18.72;63.28;97418.63;5031785;28;20045;-62
2023/09/16 06:06:41;;;;;;;16.13;13.50;;;17.20;93.20;;;18.76;63.60;97423.34;5037332;27;20042;-62
2023/09/16 06:09:08;;;;;;;15.32;12.75;;;17.20;93.20;;;18.82;63.62;97425.19;5034466;28;20444;-62
2023/09/16 06:11:36;;;;;;;20.05;14.38;;;17.40;93.20;;;18.87;63.78;97419.16;5013626;28;20038;-62
2023/09/16 06:14:05;;;;;;;16.65;13.73;;;17.30;93.40;;;18.93;63.68;97420.16;5016046;28;20050;-62
2023/09/16 06:16:34;;;;;;;17.25;14.52;;;17.50;93.00;;;18.99;63.77;97427.38;5018694;28;20041;-62
2023/09/16 06:19:03;;;;;;;18.60;14.38;;;17.60;92.70;;;19.04;63.77;97433.75;5018721;28;20060;-62
2023/09/16 06:21:31;;;;;;;19.95;14.85;;;17.60;92.50;;;19.11;63.74;97435.56;5033778;28;20037;-62
2023/09/16 06:23:59;;;;;;;16.13;13.20;;;17.70;92.40;;;19.16;63.84;97436.56;5015318;28;20069;-62
2023/09/16 06:26:27;;;;;;;20.15;14.27;;;17.80;92.10;;;19.23;63.60;97436.47;5033751;28;20056;-63
2023/09/16 06:28:56;;;;;;;17.10;14.02;;;17.90;91.70;;;19.29;63.71;97432.91;5015708;28;20414;-63
2023/09/16 06:31:24;;;;;;;18.17;14.45;;;18.00;91.30;;;19.34;63.94;97427.66;5017525;28;20059;-63
2023/09/16 06:33:54;;;;;;;20.35;15.23;;;18.10;91.30;;;19.43;63.78;97436.31;5034898;28;20067;-63
2023/09/16 06:36:23;;;;;;;15.80;12.77;;;18.10;91.10;;;19.48;63.79;97444.53;5008593;28;20069;-63
2023/09/16 06:38:50;;;;;;;19.35;12.90;;;18.20;90.70;;;19.56;63.61;97440.72;5015391;28;20050;-63
2023/09/16 06:41:19;;;;;;;19.60;14.15;;;18.30;90.40;;;19.61;63.41;97439.00;5031881;28;20053;-63
2023/09/16 06:43:46;;;;;;;18.55;13.77;;;18.40;90.30;;;19.68;63.54;97433.56;5023443;28;20048;-63
2023/09/16 06:46:18;;;;;;;18.27;14.00;;;18.40;89.90;;;19.75;63.47;97441.59;5018603;28;20050;-63
2023/09/16 06:48:46;;;;;;;17.05;12.68;;;18.50;90.60;;;19.76;63.71;97440.56;5020298;28;20050;-64
2023/09/16 06:51:14;;;;;;;18.40;14.43;;;18.60;89.70;;;19.80;63.45;97447.16;5018555;28;20054;-63
2023/09/16 06:53:42;;;;;;;18.15;14.48;;;18.60;89.40;;;19.84;63.59;97445.66;5016608;28;20104;-63
2023/09/16 06:56:10;;;;;;;16.98;13.43;;;18.60;89.40;;;19.86;63.56;97441.69;5017521;28;20037;-64
2023/09/16 06:58:37;;;;;;;20.45;13.88;;;18.70;89.10;;;19.93;63.63;97436.22;5020186;28;20033;-63
2023/09/16 07:01:12;;;;;;;19.83;14.45;;;18.80;89.00;;;19.96;63.52;97435.75;5019769;28;20515;-64
2023/09/16 07:03:41;;;;;;;19.40;12.88;;;18.80;89.00;;;19.99;63.45;97445.28;5015111;28;20056;-63
2023/09/16 07:06:09;;;;;;;17.17;12.43;;;18.80;88.60;;;20.05;63.75;97438.97;5015965;28;20053;-64
2023/09/16 07:08:36;;;;;;;16.02;13.07;;;18.90;88.40;;;20.10;63.59;97439.09;5018503;28;20056;-64
2023/09/16 07:11:04;;;;;;;17.63;13.82;;;19.00;88.30;;;20.15;63.26;97439.25;5019988;28;20061;-63
2023/09/16 07:13:32;;;;;;;15.65;12.98;;;19.00;88.10;;;20.20;63.54;97450.22;5038178;28;20054;-64
2023/09/16 07:15:59;;;;;;;16.70;12.77;;;19.10;88.90;;;20.24;63.46;97448.72;5016414;28;20057;-63
2023/09/16 07:18:27;;;;;;;16.48;13.05;;;19.10;88.10;;;20.29;63.31;97431.78;5019258;28;20038;-62
2023/09/16 07:20:55;;;;;;;19.10;12.88;;;19.20;87.70;;;20.36;63.07;97437.13;5019555;28;20048;-63
2023/09/16 07:23:22;;;;;;;17.63;14.07;;;19.20;87.60;;;20.41;63.13;97438.09;5017347;28;20049;-63
2023/09/16 07:25:59;;;;;;;15.80;12.90;;;19.20;87.40;;;20.45;63.34;97447.41;5016035;28;20416;-65
2023/09/16 07:28:27;;;;;;;16.40;12.73;;;19.30;87.40;;;20.53;62.90;97440.00;5017811;28;20054;-63
2023/09/16 07:30:56;;;;;;;15.82;12.30;;;19.30;87.20;;;20.58;62.76;97446.38;5019596;28;20056;-63
2023/09/16 07:33:24;;;;;;;14.65;11.40;;;19.40;87.00;;;20.63;62.86;97433.00;5024009;28;20056;-63
2023/09/16 07:35:52;;;;;;;21.58;11.82;;;19.40;87.00;;;20.68;62.50;97445.84;5023278;28;20044;-63
2023/09/16 07:38:20;;;;;;;16.02;13.63;;;19.50;86.70;;;20.72;62.46;97440.78;5019426;28;20050;-64
2023/09/16 07:40:52;;;;;;;15.10;11.27;;;19.50;86.40;;;20.76;62.61;97441.97;5019484;28;20046;-63
2023/09/16 07:43:20;;;;;;;16.80;12.00;;;19.60;86.30;;;20.80;62.33;97444.00;5020119;28;20048;-63
2023/09/16 07:45:48;;;;;;;14.52;11.23;;;19.60;86.10;;;20.85;62.23;97444.13;5019024;28;20049;-63
2023/09/16 07:48:17;;;;;;;13.23;11.73;;;19.70;86.00;;;20.90;62.34;97440.72;5020429;28;20061;-63
2023/09/16 07:50:45;;;;;;;14.68;11.43;;;19.70;86.00;;;20.95;62.31;97440.03;5023019;28;20045;-63
2023/09/16 07:53:13;;;;;;;13.27;10.80;;;19.80;85.90;;;21.00;62.40;97450.97;5022132;28;20417;-64
2023/09/16 07:55:41;;;;;;;14.20;12.45;;;19.80;86.00;;;21.04;62.25;97454.88;5019186;28;20041;-64
2023/09/16 07:58:08;;;;;;;14.52;11.18;;;19.90;85.80;;;21.10;62.48;97466.66;5019499;28;20042;-64
2023/09/16 08:00:36;;;;;;;15.38;12.32;;;19.90;85.50;;;21.15;62.32;97461.34;5019505;28;20049;-64
2023/09/16 08:03:05;;;;;;;14.70;11.35;;;20.00;85.40;;;21.20;61.89;97466.88;5018143;28;20050;-65
2023/09/16 08:05:32;;;;;;;15.55;12.40;;;20.10;85.40;;;21.25;61.84;97464.31;5022300;28;20045;-64
2023/09/16 08:08:00;;;;;;;13.05;10.68;;;20.00;85.10;;;21.29;61.89;97465.50;5022667;28;20082;-64
2023/09/16 08:10:28;;;;;;;13.20;10.63;;;20.10;85.10;;;21.34;61.81;97464.78;5020096;28;20049;-64
2023/09/16 08:12:55;;;;;;;13.60;10.57;;;20.20;84.80;;;21.41;61.87;97468.22;5018366;28;20068;-64
2023/09/16 08:15:23;;;;;;;12.98;10.52;;;20.30;84.40;;;21.47;61.56;97469.19;5020204;28;20413;-64
2023/09/16 08:17:52;;;;;;;20.58;10.77;;;20.30;84.10;;;21.53;61.54;97470.94;5022593;28;20048;-63
2023/09/16 08:20:20;;;;;;;11.80;10.32;;;20.40;83.70;;;21.58;61.23;97474.59;5020125;28;20604;-63
2023/09/16 08:22:48;;;;;;;13.10;9.68;;;20.50;83.70;;;21.64;61.41;97478.25;5018883;28;20045;-63
2023/09/16 08:25:16;;;;;;;12.38;9.80;;;20.40;83.40;;;21.68;61.14;97482.13;5031273;28;20049;-63
2023/09/16 08:27:44;;;;;;;11.75;9.82;;;20.50;84.20;;;21.74;61.10;97478.47;5022749;28;20511;-63
2023/09/16 08:30:12;;;;;;;12.75;10.50;;;20.60;83.20;;;21.78;60.87;97486.94;5022093;28;20060;-63
2023/09/16 08:32:40;;;;;;;12.57;10.95;;;20.60;83.00;;;21.81;60.68;97489.19;5025210;28;20520;-61
2023/09/16 08:35:08;;;;;;;13.77;10.63;;;20.70;82.70;;;21.83;60.64;97490.59;5017552;28;20050;-62
2023/09/16 08:37:35;;;;;;;12.43;10.30;;;20.70;82.60;;;21.88;60.76;97499.91;5020062;28;20061;-62
2023/09/16 08:40:03;;;;;;;12.38;10.95;;;20.80;82.60;;;21.92;60.59;97492.94;5012456;28;20042;-62
2023/09/16 08:42:41;;;;;;;13.15;9.80;;;20.80;82.20;;;21.95;60.49;97490.59;5017887;28;20041;-62
2023/09/16 08:45:15;;;;;;;11.38;10.18;;;20.80;81.70;;;21.99;60.33;97497.16;5016777;28;20042;-62
2023/09/16 08:48:01;;;;;;;;;;;20.90;82.00;;;22.05;60.23;97500.81;5018964;28;20042;-62
2023/09/16 08:50:31;;;;;;;10.18;8.70;;;20.90;81.00;;;22.14;60.02;97499.41;5019070;28;20008;-62
2023/09/16 08:53:03;;;;;;;12.70;9.80;;;20.90;81.80;;;22.16;59.78;97496.44;5019932;28;20084;-62
2023/09/16 08:55:32;;;;;;;13.55;10.80;;;21.00;81.40;;;22.18;59.81;97497.03;5017443;28;20048;-62
2023/09/16 08:58:08;;;;;;;12.88;8.18;;;21.00;81.20;;;22.21;59.71;97497.34;5017096;28;20501;-62
2023/09/16 09:00:37;;;;;;;9.55;8.52;;;21.10;80.70;;;22.25;59.98;97492.31;5019776;28;20420;-62
2023/09/16 09:03:05;;;;;;;10.70;8.85;;;21.10;80.70;;;22.29;59.77;97484.53;5020173;28;20053;-62
2023/09/16 09:05:35;;;;;;;9.98;8.35;;;21.20;80.60;;;22.36;59.91;97490.66;5025305;28;20531;-62
2023/09/16 09:08:08;;;;;;;11.80;9.05;;;21.20;80.50;;;22.41;59.69;97488.84;5017031;28;20052;-62
2023/09/16 09:10:37;;;;;;;12.23;9.27;;;21.30;80.50;;;22.49;59.63;97490.38;5019381;28;20068;-62
2023/09/16 09:13:10;;;;;;;9.45;8.43;;;21.30;80.00;;;22.53;59.27;97485.28;5018758;28;20477;-62
2023/09/16 09:15:42;;;;;;;;;;;21.40;79.50;;;22.57;59.68;97491.88;5016584;28;20067;-62
2023/09/16 09:18:18;;;;;;;9.80;8.80;;;21.40;78.50;;;22.65;58.96;97483.34;5016569;28;19921;-62
2023/09/16 09:20:46;;;;;;;9.50;8.50;;;21.50;79.50;;;22.68;58.82;97479.31;5020756;28;20045;-62
2023/09/16 09:23:14;;;;;;;9.75;8.38;;;21.50;79.30;;;22.71;58.95;97478.84;5021044;28;20049;-62
2023/09/16 09:25:42;;;;;;;12.50;8.70;;;21.60;79.20;;;22.74;58.74;97476.47;5016291;28;20037;-62
2023/09/16 09:28:11;;;;;;;11.23;8.68;;;21.60;78.90;;;22.80;58.68;97469.22;5017627;28;20360;-62
2023/09/16 09:30:41;;;;;;;13.20;8.73;;;21.70;78.80;;;22.85;58.64;97474.72;5019427;28;20049;-62
2023/09/16 09:33:19;;;;;;;9.80;8.80;;;21.70;78.60;;;22.89;58.42;97480.50;5020930;28;20060;-62
2023/09/16 09:35:47;;;;;;;11.23;8.32;;;21.80;78.10;;;22.94;58.29;97486.03;5016106;28;20058;-62
2023/09/16 09:38:15;;;;;;;12.00;8.55;;;21.80;77.60;;;22.97;58.13;97493.66;5015821;28;20060;-62
2023/09/16 09:41:00;;;;;;;12.63;8.93;;;21.80;77.60;;;22.98;57.98;97495.31;5020611;28;20041;-62
2023/09/16 09:43:30;;;;;;;9.38;8.45;;;21.90;76.40;;;23.04;57.75;97497.09;5017762;28;20048;-62
2023/09/16 09:45:58;;;;;;;8.82;7.60;;;21.90;76.70;;;23.08;57.32;97497.44;5003776;28;20057;-62
2023/09/16 09:48:26;;;;;;;11.35;7.80;;;22.00;77.20;;;23.12;57.49;97493.97;5016864;28;20058;-62
2023/09/16 09:50:54;;;;;;;8.85;7.95;;;22.00;76.20;;;23.16;57.09;97494.31;5019570;28;20048;-62
2023/09/16 09:53:26;;;;;;;7.85;6.78;;;22.00;75.60;;;23.21;57.05;97496.31;5019149;28;20072;-62
2023/09/16 09:55:54;;;;;;;8.25;7.45;;;22.10;75.50;;;23.28;56.73;97486.06;5023344;28;20497;-62
2023/09/16 09:58:24;;;;;;;8.23;7.32;;;22.10;75.00;;;23.33;56.54;97492.41;5019358;28;20053;-62
2023/09/16 10:00:52;;;;;;;7.90;7.10;;;22.20;74.40;;;23.40;56.41;97489.56;5019437;28;20037;-62
2023/09/16 10:03:23;;;;;;;10.68;6.93;;;22.30;74.30;;;23.48;55.68;97488.31;5020519;28;20052;-62
2023/09/16 10:05:50;;;;;;;9.40;6.35;;;22.40;73.40;;;23.52;55.70;97493.00;4998808;28;20046;-62
2023/09/16 10:08:20;;;;;;;7.55;6.47;;;22.40;73.00;;;23.56;55.39;97480.56;5025015;28;20076;-63
2023/09/16 10:10:49;;;;;;;6.85;6.07;;;22.40;72.80;;;23.64;55.14;97489.34;5009053;28;20046;-62
2023/09/16 10:13:17;;;;;;;11.75;6.47;;;22.50;72.30;;;23.69;55.00;97486.69;5016541;28;20476;-62
2023/09/16 10:15:45;;;;;;;6.95;6.15;;;22.60;72.00;;;23.74;54.80;97490.31;5018032;28;20520;-62